Main page
METAR-TAF:

METAR-TAF

Airports :

Visby Airport

Visby, Gotland, Sweden

latitude: 57-40N, longitude: 018-21E, elevation: 51 m

Current weather observation

The report was made 16 minutes ago, at 17:50 UTC
Wind 16 kt from the East/Southeast
Temperature 16°C
Humidity 59%
Pressure 1009 hPa
Visibility 10 km or more

METAR: ESSV 151750Z AUTO 11016KT 9999 FEW100/// 16/08 Q1009

Time: 20:06 (18:06 UTC)

Forecast

The report was made 6 hours and 36 minutes ago, at 11:30 UTC
Forecast valid from 15 at 12 UTC to 15 at 15 UTC
Wind 14 kt from the Southeast
Visibility 10 km or more
Few clouds at a height of 4000 ft

TAF: ESSV 151130Z 1512/1515 13014KT 9999 FEW040

Weather observations and forecasts of more than 4000 airports (METAR and TAF reports).

The available stations are represented by yellow and red dots on the map.

Hover mouse over dot to see the name of the station.

Then click to see weather observations and forecasts.

To change the map : click on the green buttons with a black cross to zoom in, on the green button with a dash to zoom out, or on the green arrows for adjacent maps.


METAR-TAF: